ROMMA est une association bénévole à but non lucratif. Votre soutien est indispensable : ADHERER à ROMMA ou FAIRE un DON

Nice - (06, Alpes-Maritimes)

Côte-d'Azur (190 m)   Longitude: 07° 14' E   Latitude: 43° 43' N Station partenaire n°136
 

Détail journalier du     <<     >>

Température Precipitation Humidité Pression Vent Dir Rafale Dir. rafale Ensol.
Heure (°C) (mm) (%) (hPa) (km/h) (km/h) (min)
01:00 15.408010223N10N0
02:00 16.507510216NNO24NNO0
03:00 16.607410219N24NNO0
04:00 16.607310217N26NNO0
05:00 15.307710216N19NNE0
06:00 14.807710215NNE18N0
07:00 16.306910225N19NNE0
08:00 14.107810227ONO23NNO0
09:00 16.806610228N24NNO0
10:00 18.606310236N23NO60
11:00 20.305910227NNO24NNO60
12:00 22.305810226N19NNO60
13:00 21.306110236SSE18SSE60
14:00 21.206110228SE19SE60
15:00 21.705810225SE11SE60
16:00 22.106210223SSO10SSE60
17:00 0.00010223S11S40
18:00 18.8080102200---0
19:00 18.007110224NO6NO0
20:00 18.107410224NNO8NNO0
21:00 17.407610224NNO10NNO0
22:00 17.907110234N13N0
23:00 16.807610234NNE11NNE0
minuit 16.807410235N19N0

Graphique du 26-10-2019

 

Serveur OMMA